Pacific Dawn — 3ECJ9 — position and weather

sailwx.info

Track history (hours):
 
Tides and Currents Weather Stations Pressure Air Temp Water Temp Dewpoint Dewpoint Depression Visibility Wind Speed Wind Dir Waves Ship Positions

Pacific Dawn

Last reported at 2016-May-24 09:33 UTC. Time now 2016-May-29 00:03 UTC.
Position N 01°16' E 104°10'.

Length 239 m; draft 8 m.

Type: Tanker. MMSI: 371361000.

Date/timePositionNaut miles runAvg speedWind from/ knotsBaromVisibWave heightAir tempDewpointWater temp
2016-May-24 09:33N 01°16' E 104°10'1212.5
2016-May-24 08:33N 01°14' E 103°57'4 3.1
2016-May-24 07:20N 01°16' E 103°54'0 0.0
2016-May-24 05:26N 01°16' E 103°54'0 0.0
2016-May-24 04:32N 01°16' E 103°54'0 0.0
2016-May-24 03:26N 01°16' E 103°54'0 0.1
2016-May-24 02:32N 01°16' E 103°54'0 0.0
2016-May-24 00:32N 01°16' E 103°54'0 0.0
2016-May-23 22:08N 01°16' E 103°54'0 0.0
2016-May-23 21:29N 01°16' E 103°54'0 0.1
2016-May-23 20:32N 01°16' E 103°54'0 0.0
2016-May-23 19:29N 01°16' E 103°54'0 0.0
2016-May-23 18:32N 01°16' E 103°54'0 0.0
2016-May-23 17:32N 01°16' E 103°54'2 1.6
2016-May-23 16:33N 01°14' E 103°55'8 7.6
2016-May-23 15:33N 01°12' E 103°48'0 0.0
2016-May-22 14:21N 01°12' E 103°48'0 0.0
2016-May-21 05:33N 01°12' E 103°48'4 4.0
2016-May-21 04:33N 01°13' E 103°52'4 3.5
2016-May-21 03:31N 01°15' E 103°54'0 0.0
2016-May-21 02:28N 01°15' E 103°54'0 0.0
2016-May-21 01:25N 01°15' E 103°54'0 0.1
2016-May-21 00:28N 01°15' E 103°54'0 0.0
2016-May-20 23:25N 01°15' E 103°54'0 0.0
2016-May-20 22:31N 01°15' E 103°54'0 0.0
2016-May-20 21:28N 01°15' E 103°54'0 0.1
2016-May-20 20:28N 01°15' E 103°54'0 0.0
2016-May-20 19:28N 01°15' E 103°54'0 0.1
2016-May-20 18:28N 01°15' E 103°54'0 0.1
2016-May-20 17:31N 01°15' E 103°54'0 0.1
2016-May-20 16:28N 01°15' E 103°54'0 0.1
2016-May-20 15:28N 01°15' E 103°54'0 0.2
2016-May-20 14:31N 01°15' E 103°54'0 0.1
2016-May-20 13:31N 01°15' E 103°54'0 0.0
2016-May-20 12:28N 01°15' E 103°54'0 0.0
2016-May-20 11:31N 01°15' E 103°54'0 0.0
2016-May-20 10:25N 01°15' E 103°54'0 0.2
2016-May-20 09:28N 01°15' E 103°54'0 0.1
2016-May-20 08:31N 01°15' E 103°54'2 1.6
2016-May-20 07:33N 01°16' E 103°56'5 5.0
2016-May-20 06:33N 01°16' E 104°01'6 6.0
2016-May-20 05:32N 01°17' E 104°07'  
Track history (hours):
 
Tides and Currents Weather Stations Pressure Air Temp Water Temp Dewpoint Dewpoint Depression Visibility Wind Speed Wind Dir Waves Ship Positions

Pacific Dawn

Last reported at 2016-May-24 09:33 UTC. Time now 2016-May-29 00:03 UTC.
Position N 01°16' E 104°10'.

Length 239 m; draft 8 m.

Type: Tanker. MMSI: 371361000.

Date/timePositionNaut miles runAvg speedWind from/ knotsBaromVisibWave heightAir tempDewpointWater temp
2016-May-24 09:33N 01°16' E 104°10'1212.5
2016-May-24 08:33N 01°14' E 103°57'4 3.1
2016-May-24 07:20N 01°16' E 103°54'0 0.0
2016-May-24 05:26N 01°16' E 103°54'0 0.0
2016-May-24 04:32N 01°16' E 103°54'0 0.0
2016-May-24 03:26N 01°16' E 103°54'0 0.1
2016-May-24 02:32N 01°16' E 103°54'0 0.0
2016-May-24 00:32N 01°16' E 103°54'0 0.0
2016-May-23 22:08N 01°16' E 103°54'0 0.0
2016-May-23 21:29N 01°16' E 103°54'0 0.1
2016-May-23 20:32N 01°16' E 103°54'0 0.0
2016-May-23 19:29N 01°16' E 103°54'0 0.0
2016-May-23 18:32N 01°16' E 103°54'0 0.0
2016-May-23 17:32N 01°16' E 103°54'2 1.6
2016-May-23 16:33N 01°14' E 103°55'8 7.6
2016-May-23 15:33N 01°12' E 103°48'0 0.0
2016-May-22 14:21N 01°12' E 103°48'0 0.0
2016-May-21 05:33N 01°12' E 103°48'4 4.0
2016-May-21 04:33N 01°13' E 103°52'4 3.5
2016-May-21 03:31N 01°15' E 103°54'0 0.0
2016-May-21 02:28N 01°15' E 103°54'0 0.0
2016-May-21 01:25N 01°15' E 103°54'0 0.1
2016-May-21 00:28N 01°15' E 103°54'0 0.0
2016-May-20 23:25N 01°15' E 103°54'0 0.0
2016-May-20 22:31N 01°15' E 103°54'0 0.0
2016-May-20 21:28N 01°15' E 103°54'0 0.1
2016-May-20 20:28N 01°15' E 103°54'0 0.0
2016-May-20 19:28N 01°15' E 103°54'0 0.1
2016-May-20 18:28N 01°15' E 103°54'0 0.1
2016-May-20 17:31N 01°15' E 103°54'0 0.1
2016-May-20 16:28N 01°15' E 103°54'0 0.1
2016-May-20 15:28N 01°15' E 103°54'0 0.2
2016-May-20 14:31N 01°15' E 103°54'0 0.1
2016-May-20 13:31N 01°15' E 103°54'0 0.0
2016-May-20 12:28N 01°15' E 103°54'0 0.0
2016-May-20 11:31N 01°15' E 103°54'0 0.0
2016-May-20 10:25N 01°15' E 103°54'0 0.2
2016-May-20 09:28N 01°15' E 103°54'0 0.1
2016-May-20 08:31N 01°15' E 103°54'2 1.6
2016-May-20 07:33N 01°16' E 103°56'5 5.0
2016-May-20 06:33N 01°16' E 104°01'6 6.0
2016-May-20 05:32N 01°17' E 104°07'  

Dump ship's entire track history